createdAt,value
2019-02-27T00:01:39.347Z,66.27
2019-02-27T00:04:08.147Z,66.19
2019-02-27T00:06:36.931Z,66.65
2019-02-27T00:09:09.227Z,66.37
2019-02-27T00:11:38.088Z,66.82
2019-02-27T00:14:06.876Z,67.18
2019-02-27T00:16:36.462Z,67.26
2019-02-27T00:19:05.326Z,67.33
2019-02-27T00:21:34.287Z,66.85
2019-02-27T00:24:03.648Z,66.64
2019-02-27T00:26:33.275Z,67.09
2019-02-27T00:29:02.094Z,66.68
2019-02-27T00:31:30.941Z,67.00
2019-02-27T00:34:00.541Z,66.83
2019-02-27T00:36:29.842Z,67.74
2019-02-27T00:38:58.657Z,67.37
2019-02-27T00:41:28.362Z,67.43
2019-02-27T00:44:01.040Z,66.85
2019-02-27T00:46:26.016Z,67.70
2019-02-27T00:48:59.037Z,67.67
2019-02-27T00:51:23.662Z,67.75
2019-02-27T00:53:52.472Z,67.05
2019-02-27T00:56:21.272Z,67.13
2019-02-27T00:58:50.088Z,67.06
2019-02-27T01:01:19.120Z,67.19
2019-02-27T01:03:48.586Z,67.38
2019-02-27T01:06:18.247Z,67.43
2019-02-27T01:08:47.835Z,67.97
2019-02-27T01:11:18.401Z,67.31
2019-02-27T01:13:46.423Z,67.42
2019-02-27T01:16:17.334Z,67.93
2019-02-27T01:18:44.278Z,68.30
2019-02-27T01:21:13.075Z,67.82
2019-02-27T01:23:44.870Z,67.93
2019-02-27T01:26:13.690Z,68.62
2019-02-27T01:28:45.452Z,68.30
2019-02-27T01:31:11.347Z,68.92
2019-02-27T01:33:41.946Z,68.47
2019-02-27T01:36:11.348Z,68.24
2019-02-27T01:38:40.117Z,69.38
2019-02-27T01:41:09.879Z,69.16
2019-02-27T01:43:39.860Z,68.30
2019-02-27T01:46:08.171Z,68.84
2019-02-27T01:48:37.030Z,68.58
2019-02-27T01:51:06.139Z,68.99
2019-02-27T01:53:37.948Z,69.16
2019-02-27T01:56:05.859Z,68.72
2019-02-27T01:58:36.453Z,68.71
2019-02-27T02:01:06.498Z,69.24
2019-02-27T02:03:35.534Z,69.93
2019-02-27T02:06:05.270Z,69.61
2019-02-27T02:08:34.099Z,69.88
2019-02-27T02:11:02.896Z,69.17
2019-02-27T02:13:51.603Z,69.33
2019-02-27T02:18:39.037Z,68.96
2019-02-27T02:21:21.050Z,69.09
2019-02-27T02:26:10.166Z,69.31
2019-02-27T02:29:27.467Z,69.10
2019-02-27T02:32:02.157Z,69.43
2019-02-27T02:34:42.344Z,69.83
2019-02-27T02:37:30.045Z,69.35
2019-02-27T02:42:16.446Z,69.09
2019-02-27T02:44:57.479Z,69.46
2019-02-27T02:47:35.933Z,70.32
2019-02-27T02:51:18.994Z,70.66
2019-02-27T02:56:01.758Z,70.02
2019-02-27T03:00:44.187Z,70.05
2019-02-27T03:03:28.004Z,69.20
2019-02-27T03:06:34.407Z,70.54
2019-02-27T03:09:20.680Z,70.14
2019-02-27T03:12:19.774Z,70.17
2019-02-27T03:15:00.554Z,69.72
2019-02-27T03:19:12.208Z,70.02
2019-02-27T03:23:55.420Z,70.41
2019-02-27T03:26:41.378Z,69.52
2019-02-27T03:29:39.617Z,69.64
2019-02-27T03:32:15.153Z,70.52
2019-02-27T03:35:04.763Z,70.57
2019-02-27T03:37:40.551Z,70.40
2019-02-27T03:40:25.145Z,71.41
2019-02-27T03:43:02.351Z,71.04
2019-02-27T03:45:43.675Z,71.89
2019-02-27T03:48:27.531Z,72.14
2019-02-27T03:51:05.803Z,71.66
2019-02-27T03:54:50.248Z,71.46
2019-02-27T03:58:31.747Z,70.95
2019-02-27T04:01:15.493Z,71.42
2019-02-27T04:04:03.008Z,71.02
2019-02-27T04:07:19.118Z,72.13
2019-02-27T04:09:47.901Z,71.16
2019-02-27T04:12:17.426Z,70.93
2019-02-27T04:14:46.625Z,71.59
2019-02-27T04:17:15.967Z,72.48
2019-02-27T04:19:44.766Z,72.48
2019-02-27T04:22:13.734Z,72.48
2019-02-27T04:24:43.501Z,71.78
2019-02-27T04:27:12.960Z,72.18
2019-02-27T04:29:41.932Z,71.31
2019-02-27T04:32:12.395Z,71.52
2019-02-27T04:34:39.347Z,72.07
2019-02-27T04:37:08.770Z,71.79
2019-02-27T04:39:38.850Z,71.92
2019-02-27T04:42:07.725Z,71.67
2019-02-27T04:44:39.036Z,71.25
2019-02-27T04:47:05.678Z,71.37
2019-02-27T04:49:37.454Z,72.04
2019-02-27T04:52:03.369Z,72.58
2019-02-27T04:54:32.168Z,71.77
2019-02-27T04:57:01.941Z,72.01
2019-02-27T04:59:30.995Z,71.48
2019-02-27T05:01:59.743Z,72.98
2019-02-27T05:04:28.558Z,72.53
2019-02-27T05:06:57.942Z,72.89
2019-02-27T05:09:26.720Z,72.53
2019-02-27T05:11:56.261Z,72.30
2019-02-27T05:14:27.339Z,72.47
2019-02-27T05:16:55.504Z,72.36
2019-02-27T05:19:25.425Z,73.02
2019-02-27T05:21:55.679Z,72.40
2019-02-27T05:24:24.466Z,72.80
2019-02-27T05:26:53.288Z,72.84
2019-02-27T05:29:22.350Z,73.16
2019-02-27T05:31:53.315Z,73.06
2019-02-27T05:34:20.029Z,72.34
2019-02-27T05:36:49.989Z,73.04
2019-02-27T05:39:18.798Z,72.72
2019-02-27T05:41:47.618Z,72.86
2019-02-27T05:44:16.440Z,72.45
2019-02-27T05:46:45.236Z,72.35
2019-02-27T05:49:14.037Z,72.32
2019-02-27T05:51:42.826Z,72.30
2019-02-27T05:54:11.726Z,72.28
2019-02-27T05:56:40.559Z,72.06
2019-02-27T05:59:09.334Z,72.82
2019-02-27T06:01:38.732Z,73.31
2019-02-27T06:04:08.331Z,72.56
2019-02-27T06:06:37.172Z,72.96
2019-02-27T06:09:09.915Z,72.76
2019-02-27T06:11:36.738Z,72.91
2019-02-27T06:14:05.863Z,73.92
2019-02-27T06:16:37.052Z,73.12
2019-02-27T06:19:04.818Z,73.67
2019-02-27T06:21:33.867Z,75.32
2019-02-27T06:24:04.333Z,74.37
2019-02-27T06:26:33.191Z,74.28
2019-02-27T06:29:01.955Z,73.85
2019-02-27T06:31:30.722Z,73.86
2019-02-27T06:33:59.583Z,73.66
2019-02-27T06:36:28.356Z,73.67
2019-02-27T06:39:00.161Z,73.42
2019-02-27T06:41:26.031Z,73.28
2019-02-27T06:43:54.903Z,73.90
2019-02-27T06:46:25.629Z,74.07
2019-02-27T06:48:56.374Z,73.62
2019-02-27T06:51:24.431Z,73.47
2019-02-27T06:53:53.439Z,73.85
2019-02-27T06:56:22.271Z,73.67
2019-02-27T06:58:51.711Z,74.62
2019-02-27T07:01:20.514Z,73.88
2019-02-27T07:03:50.227Z,73.89
2019-02-27T07:06:21.372Z,73.83
2019-02-27T07:08:47.841Z,74.05
2019-02-27T07:11:20.340Z,73.76
2019-02-27T07:13:49.211Z,73.77
2019-02-27T07:16:20.448Z,73.38
2019-02-27T07:18:47.394Z,73.05
2019-02-27T07:21:16.202Z,73.33
2019-02-27T07:23:44.981Z,72.62
2019-02-27T07:26:15.918Z,72.65
2019-02-27T07:28:44.113Z,73.07
2019-02-27T07:31:15.282Z,72.37
2019-02-27T07:33:41.412Z,72.98
2019-02-27T07:36:10.880Z,72.79
2019-02-27T07:38:39.730Z,73.61
2019-02-27T07:41:08.621Z,73.06
2019-02-27T07:43:38.036Z,73.51
2019-02-27T07:46:09.231Z,73.87
2019-02-27T07:48:38.276Z,73.61
2019-02-27T07:51:07.053Z,72.65
2019-02-27T07:53:35.895Z,72.72
2019-02-27T07:56:04.711Z,71.97
2019-02-27T07:58:34.552Z,71.58
2019-02-27T08:01:04.463Z,70.70
2019-02-27T08:03:31.528Z,71.09
2019-02-27T08:06:04.056Z,70.69
2019-02-27T08:08:33.592Z,68.08
2019-02-27T08:11:03.012Z,65.79
2019-02-27T08:13:32.642Z,63.15
2019-02-27T08:16:01.453Z,62.20
2019-02-27T08:18:33.620Z,60.98
2019-02-27T08:20:59.531Z,60.24
2019-02-27T08:23:28.895Z,59.34
2019-02-27T08:25:57.688Z,59.85
2019-02-27T08:28:26.497Z,60.17
2019-02-27T08:30:55.336Z,60.35
2019-02-27T08:33:24.204Z,60.30
2019-02-27T08:35:52.987Z,60.03
2019-02-27T08:38:23.497Z,59.22
2019-02-27T08:40:55.016Z,60.08
2019-02-27T08:43:22.312Z,59.94
2019-02-27T08:45:51.114Z,60.60
2019-02-27T08:48:20.787Z,60.55
2019-02-27T08:50:49.602Z,60.73
2019-02-27T08:53:18.415Z,60.34
2019-02-27T08:55:47.873Z,60.66
2019-02-27T08:58:17.771Z,60.97
2019-02-27T09:00:47.438Z,59.71
2019-02-27T09:03:20.351Z,60.38
2019-02-27T09:05:44.193Z,60.12
2019-02-27T09:08:13.022Z,60.83
2019-02-27T09:10:42.200Z,59.92
2019-02-27T09:13:12.005Z,59.74
2019-02-27T09:15:41.707Z,59.96
2019-02-27T09:18:11.279Z,59.79
2019-02-27T09:20:40.131Z,60.21
2019-02-27T09:23:08.932Z,59.16
2019-02-27T09:25:37.735Z,58.50
2019-02-27T09:28:09.267Z,58.13
2019-02-27T09:30:35.494Z,58.29
2019-02-27T09:33:05.013Z,58.03
2019-02-27T09:35:38.471Z,58.89
2019-02-27T09:38:04.395Z,57.54
2019-02-27T09:40:33.207Z,57.49
2019-02-27T09:43:02.019Z,56.28
2019-02-27T09:45:31.647Z,55.95
2019-02-27T09:48:00.799Z,55.92
2019-02-27T09:50:33.210Z,56.11
2019-02-27T09:53:03.628Z,55.65
2019-02-27T09:55:32.130Z,54.80
2019-02-27T09:58:00.929Z,54.75
2019-02-27T10:00:33.269Z,54.90
2019-02-27T10:03:01.641Z,54.61
2019-02-27T10:05:30.475Z,53.01
2019-02-27T10:07:59.259Z,51.46
2019-02-27T10:10:28.054Z,50.88
2019-02-27T10:12:57.083Z,49.96
2019-02-27T10:15:26.005Z,49.59
2019-02-27T10:17:54.696Z,49.01
2019-02-27T10:20:23.519Z,47.89
2019-02-27T10:22:54.057Z,48.24
2019-02-27T10:25:22.066Z,46.13
2019-02-27T10:27:50.915Z,46.38
2019-02-27T10:30:19.731Z,45.63
2019-02-27T10:32:49.051Z,45.99
2019-02-27T10:35:17.859Z,44.62
2019-02-27T10:37:50.324Z,44.62
2019-02-27T10:40:18.267Z,44.01
2019-02-27T10:42:47.100Z,43.69
2019-02-27T10:45:15.944Z,42.62
2019-02-27T10:47:44.747Z,43.16
2019-02-27T10:50:14.232Z,42.50
2019-02-27T10:52:43.026Z,42.38
2019-02-27T10:55:14.245Z,41.76
2019-02-27T10:57:41.920Z,41.97
2019-02-27T11:00:19.240Z,40.37
2019-02-27T11:02:48.605Z,40.15
2019-02-27T11:05:17.779Z,40.12
2019-02-27T11:07:46.604Z,39.55
2019-02-27T11:10:15.137Z,39.23
2019-02-27T11:12:43.943Z,39.17
2019-02-27T11:15:14.829Z,38.13
2019-02-27T11:17:44.749Z,37.72
2019-02-27T11:20:13.706Z,37.49
2019-02-27T11:22:42.523Z,37.28
2019-02-27T11:25:13.696Z,36.43
2019-02-27T11:27:42.499Z,37.50
2019-02-27T11:30:14.161Z,36.42
2019-02-27T11:32:43.071Z,36.05
2019-02-27T11:35:11.886Z,36.05
2019-02-27T11:37:40.730Z,34.89
2019-02-27T11:40:13.479Z,34.43
2019-02-27T11:42:43.215Z,34.87
2019-02-27T11:45:12.691Z,34.17
2019-02-27T11:47:44.715Z,34.40
2019-02-27T11:50:17.803Z,34.63
2019-02-27T11:52:48.857Z,33.51
2019-02-27T11:55:14.943Z,33.46
2019-02-27T11:57:43.591Z,33.95
2019-02-27T12:00:17.916Z,34.60
2019-02-27T12:02:44.567Z,34.62
2019-02-27T12:05:14.199Z,33.54
2019-02-27T12:07:43.916Z,32.92
2019-02-27T12:10:16.330Z,33.27
2019-02-27T12:12:45.158Z,31.91
2019-02-27T12:15:15.856Z,32.42
2019-02-27T12:17:46.988Z,32.83
2019-02-27T12:20:18.075Z,31.35
2019-02-27T12:22:43.394Z,32.03
2019-02-27T12:25:13.381Z,31.83
2019-02-27T12:27:49.027Z,32.06
2019-02-27T12:30:13.488Z,32.25
2019-02-27T12:32:42.343Z,32.00
2019-02-27T12:35:13.655Z,32.31
2019-02-27T12:37:42.523Z,32.55
2019-02-27T12:40:13.285Z,31.79
2019-02-27T12:42:42.733Z,31.20
2019-02-27T12:45:13.602Z,31.72
2019-02-27T12:47:42.380Z,31.61
2019-02-27T12:50:12.667Z,31.99
2019-02-27T12:52:44.371Z,32.26
2019-02-27T12:55:11.349Z,31.98
2019-02-27T12:57:40.184Z,31.49
2019-02-27T13:00:11.088Z,32.22
2019-02-27T13:02:39.897Z,32.04
2019-02-27T13:05:09.945Z,31.62
2019-02-27T13:07:38.741Z,31.63
2019-02-27T13:10:10.015Z,32.04
2019-02-27T13:12:38.822Z,32.30
2019-02-27T13:15:08.177Z,32.28
2019-02-27T13:17:37.056Z,31.72
2019-02-27T13:20:09.036Z,32.25
2019-02-27T13:22:37.723Z,31.91
2019-02-27T13:25:08.262Z,33.28
2019-02-27T13:27:37.048Z,32.88
2019-02-27T13:30:09.234Z,32.04
2019-02-27T13:32:35.491Z,32.21
2019-02-27T13:35:04.569Z,32.28
2019-02-27T13:37:33.383Z,33.16
2019-02-27T13:40:02.802Z,32.71
2019-02-27T13:42:31.640Z,32.01
2019-02-27T13:45:00.453Z,33.05
2019-02-27T13:47:31.069Z,33.34
2019-02-27T13:49:58.335Z,32.35
2019-02-27T13:52:28.128Z,32.84
2019-02-27T13:54:56.939Z,32.94
2019-02-27T13:57:25.908Z,32.79
2019-02-27T13:59:54.574Z,31.99
2019-02-27T14:02:24.236Z,33.07
2019-02-27T14:05:00.430Z,33.57
2019-02-27T14:07:27.540Z,33.43
2019-02-27T14:09:56.334Z,33.39
2019-02-27T14:12:25.219Z,32.84
2019-02-27T14:14:55.928Z,33.38
2019-02-27T14:17:24.051Z,32.81
2019-02-27T14:19:55.281Z,32.67
2019-02-27T14:22:21.675Z,32.96
2019-02-27T14:24:51.877Z,33.03
2019-02-27T14:27:20.203Z,33.88
2019-02-27T14:29:50.533Z,34.00
2019-02-27T14:32:20.620Z,33.56
2019-02-27T14:34:49.399Z,34.10
2019-02-27T14:37:18.174Z,33.16
2019-02-27T14:39:48.050Z,33.16
2019-02-27T14:42:16.847Z,34.05
2019-02-27T14:44:45.642Z,34.30
2019-02-27T14:47:16.402Z,34.43
2019-02-27T14:49:44.031Z,34.96
2019-02-27T14:52:14.316Z,34.01
2019-02-27T14:54:41.946Z,33.64
2019-02-27T14:57:12.909Z,35.00
2019-02-27T14:59:39.555Z,34.40
2019-02-27T15:02:08.387Z,34.56
2019-02-27T15:04:37.192Z,34.40
2019-02-27T15:07:06.027Z,34.92
2019-02-27T15:09:47.417Z,35.14
2019-02-27T15:12:06.688Z,35.88
2019-02-27T15:14:35.738Z,35.33
2019-02-27T15:17:04.519Z,35.74
2019-02-27T15:19:35.379Z,35.61
2019-02-27T15:22:02.146Z,36.81
2019-02-27T15:24:31.921Z,36.24
2019-02-27T15:27:00.343Z,36.37
2019-02-27T15:29:29.253Z,36.44
2019-02-27T15:31:58.083Z,36.60
2019-02-27T15:34:26.952Z,37.47
2019-02-27T15:36:55.811Z,38.01
2019-02-27T15:39:24.579Z,37.48
2019-02-27T15:41:54.337Z,37.81
2019-02-27T15:44:23.806Z,37.91
2019-02-27T15:46:53.507Z,38.36
2019-02-27T15:49:22.066Z,38.89
2019-02-27T15:51:50.914Z,38.67
2019-02-27T15:54:23.831Z,39.28
2019-02-27T15:56:51.678Z,39.30
2019-02-27T15:59:20.461Z,39.54
2019-02-27T16:01:49.249Z,39.01
2019-02-27T16:04:21.232Z,39.17
2019-02-27T16:06:46.927Z,39.97
2019-02-27T16:09:15.750Z,39.73
2019-02-27T16:11:48.153Z,39.76
2019-02-27T16:14:15.989Z,39.80
2019-02-27T16:16:47.536Z,39.96
2019-02-27T16:19:15.007Z,40.04
2019-02-27T16:21:44.328Z,40.18
2019-02-27T16:24:13.842Z,40.03
2019-02-27T16:26:43.447Z,41.20
2019-02-27T16:29:13.134Z,40.98
2019-02-27T16:31:42.640Z,41.42
2019-02-27T16:34:11.506Z,41.79
2019-02-27T16:36:40.279Z,41.80
2019-02-27T16:39:09.750Z,42.08
2019-02-27T16:41:46.105Z,42.12
2019-02-27T16:44:15.228Z,42.60
2019-02-27T16:46:44.931Z,42.69
2019-02-27T16:49:13.565Z,43.25
2019-02-27T16:51:42.472Z,42.94
2019-02-27T16:54:11.647Z,43.50
2019-02-27T16:56:46.575Z,43.98
2019-02-27T16:59:11.946Z,44.33
2019-02-27T17:01:39.212Z,44.22
2019-02-27T17:04:08.170Z,44.99
2019-02-27T17:06:37.043Z,45.41
2019-02-27T17:09:10.070Z,45.40
2019-02-27T17:11:38.093Z,45.79
2019-02-27T17:14:06.995Z,46.52
2019-02-27T17:16:35.836Z,46.68
2019-02-27T17:19:04.642Z,46.29
2019-02-27T17:21:34.210Z,46.74
2019-02-27T17:24:04.337Z,47.40
2019-02-27T17:26:35.305Z,47.67
2019-02-27T17:29:02.962Z,47.88
2019-02-27T17:31:32.274Z,48.18
2019-02-27T17:34:01.162Z,48.50
2019-02-27T17:36:32.087Z,49.04
2019-02-27T17:38:59.540Z,49.09
2019-02-27T17:41:28.917Z,49.09
2019-02-27T17:44:03.887Z,49.64
2019-02-27T17:46:26.900Z,49.88
2019-02-27T17:48:55.846Z,49.74
2019-02-27T17:51:25.132Z,49.99
2019-02-27T17:53:55.133Z,50.23
2019-02-27T17:56:23.441Z,50.20
2019-02-27T17:58:52.266Z,50.60
2019-02-27T18:01:24.936Z,50.99
2019-02-27T18:03:50.870Z,50.40
2019-02-27T18:06:19.721Z,51.01
2019-02-27T18:08:51.705Z,51.30
2019-02-27T18:11:18.934Z,51.71
2019-02-27T18:13:47.830Z,51.76
2019-02-27T18:16:16.563Z,52.05
2019-02-27T18:18:45.899Z,52.06
2019-02-27T18:21:14.739Z,52.29
2019-02-27T18:23:44.310Z,52.23
2019-02-27T18:26:15.656Z,52.55
2019-02-27T18:28:44.093Z,52.58
2019-02-27T18:31:13.525Z,52.69
2019-02-27T18:33:42.326Z,53.18
2019-02-27T18:36:11.220Z,53.21
2019-02-27T18:38:40.061Z,53.39
2019-02-27T18:41:08.871Z,53.49
2019-02-27T18:43:37.715Z,53.96
2019-02-27T18:46:07.241Z,54.01
2019-02-27T18:48:36.864Z,54.20
2019-02-27T18:51:06.514Z,54.35
2019-02-27T18:53:36.593Z,54.58
2019-02-27T18:56:06.653Z,54.90
2019-02-27T18:58:35.438Z,54.79
2019-02-27T19:01:09.499Z,55.35
2019-02-27T19:03:34.824Z,55.30
2019-02-27T19:06:03.653Z,55.39
2019-02-27T19:08:32.784Z,56.08
2019-02-27T19:11:01.617Z,56.06
2019-02-27T19:13:31.714Z,56.23
2019-02-27T19:15:59.384Z,56.16
2019-02-27T19:18:28.199Z,56.55
2019-02-27T19:20:59.230Z,56.78
2019-02-27T19:23:26.951Z,57.14
2019-02-27T19:25:56.627Z,56.90
2019-02-27T19:28:25.701Z,57.24
2019-02-27T19:30:55.009Z,57.50
2019-02-27T19:33:23.826Z,57.45
2019-02-27T19:35:55.845Z,57.90
2019-02-27T19:38:22.035Z,57.59
2019-02-27T19:40:50.815Z,57.82
2019-02-27T19:43:21.096Z,58.31
2019-02-27T19:45:49.061Z,58.49
2019-02-27T19:48:18.403Z,58.19
2019-02-27T19:50:47.723Z,58.71
2019-02-27T19:53:16.555Z,58.51
2019-02-27T19:55:45.376Z,58.77
2019-02-27T19:58:17.470Z,59.02
2019-02-27T20:00:48.468Z,59.37
2019-02-27T20:03:12.111Z,59.13
2019-02-27T20:05:40.910Z,59.10
2019-02-27T20:08:11.350Z,59.87
2019-02-27T20:10:40.758Z,59.65
2019-02-27T20:13:12.715Z,59.79
2019-02-27T20:15:42.806Z,59.74
2019-02-27T20:18:10.356Z,59.86
2019-02-27T20:20:41.484Z,59.98
2019-02-27T20:23:11.101Z,60.29
2019-02-27T20:25:44.194Z,60.95
2019-02-27T20:28:09.700Z,61.35
2019-02-27T20:30:39.541Z,61.37
2019-02-27T20:33:08.349Z,61.37
2019-02-27T20:35:37.133Z,61.45
2019-02-27T20:38:05.964Z,61.43
2019-02-27T20:40:35.238Z,61.76
2019-02-27T20:43:03.764Z,62.05
2019-02-27T20:45:33.505Z,61.81
2019-02-27T20:48:02.389Z,61.79
2019-02-27T20:50:36.363Z,62.21
2019-02-27T20:53:05.427Z,62.60
2019-02-27T20:55:34.801Z,62.39
2019-02-27T20:58:03.967Z,62.43
2019-02-27T21:00:35.937Z,62.66
2019-02-27T21:03:02.580Z,63.21
2019-02-27T21:05:30.554Z,63.61
2019-02-27T21:08:02.036Z,62.80
2019-02-27T21:10:28.858Z,63.16
2019-02-27T21:12:58.180Z,63.04
2019-02-27T21:15:29.302Z,63.44
2019-02-27T21:17:58.468Z,63.50
2019-02-27T21:20:25.235Z,63.99
2019-02-27T21:22:55.023Z,64.08
2019-02-27T21:25:24.431Z,64.17
2019-02-27T21:27:53.257Z,64.10
2019-02-27T21:30:22.124Z,64.03
2019-02-27T21:32:51.895Z,64.31
2019-02-27T21:35:21.383Z,64.23
2019-02-27T21:37:51.181Z,64.37
2019-02-27T21:40:20.595Z,64.77
2019-02-27T21:42:51.830Z,64.90
2019-02-27T21:45:20.236Z,64.89
2019-02-27T21:47:52.947Z,64.73
2019-02-27T21:50:21.228Z,64.84
2019-02-27T21:52:50.018Z,65.07
2019-02-27T21:55:18.827Z,65.43
2019-02-27T21:57:47.623Z,64.76
2019-02-27T22:00:20.385Z,64.88
2019-02-27T22:02:50.297Z,65.43
2019-02-27T22:05:20.120Z,65.53
2019-02-27T22:07:49.912Z,65.74
2019-02-27T22:10:20.543Z,65.78
2019-02-27T22:12:48.948Z,65.22
2019-02-27T22:15:22.923Z,65.84
2019-02-27T22:17:51.757Z,65.59
2019-02-27T22:20:22.191Z,65.79
2019-02-27T22:22:53.285Z,65.78
2019-02-27T22:25:23.103Z,65.73
2019-02-27T22:27:52.474Z,66.15
2019-02-27T22:30:21.774Z,66.79
2019-02-27T22:32:51.531Z,66.92
2019-02-27T22:35:20.306Z,66.63
2019-02-27T22:37:52.491Z,66.20
2019-02-27T22:40:19.227Z,66.45
2019-02-27T22:42:50.552Z,66.99
2019-02-27T22:45:20.620Z,66.81
2019-02-27T22:47:49.914Z,67.08
2019-02-27T22:50:19.377Z,66.86
2019-02-27T22:52:54.162Z,67.38
2019-02-27T22:55:18.139Z,67.46
2019-02-27T22:57:47.682Z,67.80
2019-02-27T23:00:37.890Z,68.88
2019-02-27T23:03:06.700Z,68.72
2019-02-27T23:05:38.182Z,68.58
2019-02-27T23:08:04.277Z,68.75
2019-02-27T23:10:35.174Z,69.92
2019-02-27T23:13:04.018Z,69.53
2019-02-27T23:15:33.354Z,69.28
2019-02-27T23:18:02.582Z,69.58
2019-02-27T23:20:32.627Z,69.44
2019-02-27T23:23:03.791Z,69.54
2019-02-27T23:25:33.906Z,70.31
2019-02-27T23:28:03.885Z,71.03
2019-02-27T23:30:32.670Z,71.25
2019-02-27T23:33:02.938Z,70.93
2019-02-27T23:35:32.524Z,70.78
2019-02-27T23:38:03.312Z,70.36
2019-02-27T23:40:33.177Z,70.69
2019-02-27T23:43:03.489Z,70.06
2019-02-27T23:45:31.628Z,70.53
2019-02-27T23:48:02.222Z,70.89
2019-02-27T23:50:29.891Z,70.45
2019-02-27T23:52:58.690Z,69.97
2019-02-27T23:55:27.464Z,70.94
2019-02-27T23:57:57.922Z,70.73
